createdAt,value
2023-01-26T00:01:46.521Z,35.78
2023-01-26T00:04:14.728Z,37.08
2023-01-26T00:06:43.090Z,35.03
2023-01-26T00:09:15.314Z,33.85
2023-01-26T00:11:43.880Z,32.78
2023-01-26T00:14:11.604Z,34.17
2023-01-26T00:16:39.553Z,34.05
2023-01-26T00:19:07.413Z,36.10
2023-01-26T00:21:36.117Z,34.45
2023-01-26T00:24:05.159Z,34.00
2023-01-26T00:26:33.378Z,36.22
2023-01-26T00:29:01.601Z,34.88
2023-01-26T00:31:30.142Z,34.20
2023-01-26T00:33:58.362Z,35.28
2023-01-26T00:36:27.971Z,34.13
2023-01-26T00:38:55.693Z,37.13
2023-01-26T00:41:42.997Z,34.60
2023-01-26T00:44:10.755Z,35.70
2023-01-26T00:46:38.852Z,35.30
2023-01-26T00:49:07.861Z,35.13
2023-01-26T00:51:36.384Z,35.03
2023-01-26T00:54:05.589Z,34.65
2023-01-26T00:56:33.708Z,34.97
2023-01-26T00:59:01.593Z,36.75
2023-01-26T01:01:29.964Z,35.45
2023-01-26T01:03:57.783Z,37.67
2023-01-26T01:06:26.223Z,35.97
2023-01-26T01:08:54.183Z,34.88
2023-01-26T01:11:23.075Z,34.30
2023-01-26T01:13:52.117Z,36.03
2023-01-26T01:16:20.782Z,35.97
2023-01-26T01:18:48.568Z,36.25
2023-01-26T01:21:18.040Z,33.95
2023-01-26T01:23:46.423Z,35.72
2023-01-26T01:26:15.785Z,37.15
2023-01-26T01:28:44.584Z,36.83
2023-01-26T01:31:15.478Z,32.78
2023-01-26T01:33:43.860Z,36.03
2023-01-26T01:36:15.151Z,35.00
2023-01-26T01:38:44.071Z,33.45
2023-01-26T01:41:12.761Z,35.40
2023-01-26T01:43:41.188Z,35.90
2023-01-26T01:46:22.899Z,35.22
2023-01-26T01:48:56.722Z,34.28
2023-01-26T01:51:39.536Z,34.78
2023-01-26T01:54:16.095Z,35.83
2023-01-26T01:56:48.598Z,37.15
2023-01-26T01:59:21.259Z,37.10
2023-01-26T02:01:51.355Z,33.30
2023-01-26T02:04:20.549Z,34.75
2023-01-26T02:06:53.165Z,34.25
2023-01-26T02:10:01.019Z,36.08
2023-01-26T02:12:31.624Z,32.85
2023-01-26T02:15:00.947Z,35.42
2023-01-26T02:17:29.447Z,34.60
2023-01-26T02:20:34.984Z,33.85
2023-01-26T02:23:49.238Z,33.42
2023-01-26T02:26:21.205Z,33.58
2023-01-26T02:28:51.785Z,35.17
2023-01-26T02:31:20.499Z,34.17
2023-01-26T02:33:49.587Z,33.83
2023-01-26T02:36:21.588Z,33.85
2023-01-26T02:39:22.011Z,35.22
2023-01-26T02:42:10.209Z,33.25
2023-01-26T02:44:42.097Z,31.40
2023-01-26T02:47:16.173Z,32.78
2023-01-26T02:49:47.709Z,33.72
2023-01-26T02:52:19.429Z,33.97
2023-01-26T02:55:12.843Z,35.03
2023-01-26T02:57:42.988Z,33.22
2023-01-26T03:00:14.037Z,33.70
2023-01-26T03:02:43.114Z,35.03
2023-01-26T03:05:11.723Z,33.60
2023-01-26T03:07:41.717Z,34.67
2023-01-26T03:10:11.356Z,34.08
2023-01-26T03:12:39.785Z,33.30
2023-01-26T03:15:27.759Z,35.35
2023-01-26T03:18:36.679Z,33.22
2023-01-26T03:21:34.884Z,32.10
2023-01-26T03:24:22.411Z,34.25
2023-01-26T03:27:13.347Z,32.60
2023-01-26T03:29:41.201Z,33.83
2023-01-26T03:32:09.615Z,33.90
2023-01-26T03:34:37.848Z,33.78
2023-01-26T03:37:06.906Z,34.22
2023-01-26T03:40:01.338Z,36.70
2023-01-26T03:42:48.678Z,35.60
2023-01-26T03:45:36.064Z,37.08
2023-01-26T03:48:28.231Z,35.28
2023-01-26T03:51:15.584Z,33.75
2023-01-26T03:54:03.404Z,36.22
2023-01-26T03:56:32.991Z,34.05
2023-01-26T03:59:15.794Z,34.28
2023-01-26T04:02:05.453Z,34.47
2023-01-26T04:04:54.451Z,35.45
2023-01-26T04:07:45.041Z,35.17
2023-01-26T04:10:13.848Z,32.40
2023-01-26T04:12:42.988Z,32.85
2023-01-26T04:15:38.997Z,34.67
2023-01-26T04:18:28.540Z,35.97
2023-01-26T04:21:16.843Z,31.42
2023-01-26T04:23:45.551Z,36.50
2023-01-26T04:26:13.741Z,35.38
2023-01-26T04:28:42.292Z,31.92
2023-01-26T04:31:11.295Z,33.50
2023-01-26T04:33:39.661Z,35.17
2023-01-26T04:36:09.626Z,35.92
2023-01-26T04:38:41.548Z,33.10
2023-01-26T04:41:10.782Z,34.53
2023-01-26T04:43:44.587Z,33.30
2023-01-26T04:46:13.236Z,34.15
2023-01-26T04:48:42.104Z,33.50
2023-01-26T04:51:14.915Z,34.53
2023-01-26T04:53:43.977Z,32.53
2023-01-26T04:56:29.485Z,33.97
2023-01-26T04:59:00.758Z,31.73
2023-01-26T05:01:29.576Z,32.72
2023-01-26T05:04:02.055Z,34.08
2023-01-26T05:06:32.511Z,34.35
2023-01-26T05:09:00.600Z,34.60
2023-01-26T05:11:29.834Z,34.53
2023-01-26T05:14:05.611Z,36.03
2023-01-26T05:16:49.811Z,33.05
2023-01-26T05:19:40.467Z,35.42
2023-01-26T05:22:27.654Z,31.33
2023-01-26T05:25:18.756Z,33.90
2023-01-26T05:27:54.278Z,34.42
2023-01-26T05:30:22.213Z,33.60
2023-01-26T05:32:51.750Z,32.92
2023-01-26T05:35:19.504Z,35.30
2023-01-26T05:37:47.851Z,34.90
2023-01-26T05:40:16.550Z,33.80
2023-01-26T05:42:46.740Z,33.70
2023-01-26T05:45:33.425Z,34.85
2023-01-26T05:48:03.155Z,33.90
2023-01-26T05:50:32.665Z,34.03
2023-01-26T05:53:20.137Z,33.10
2023-01-26T05:55:49.415Z,34.08
2023-01-26T05:58:21.476Z,36.40
2023-01-26T06:00:50.059Z,34.95
2023-01-26T06:03:25.679Z,35.05
2023-01-26T06:05:55.874Z,36.13
2023-01-26T06:08:35.456Z,36.38
2023-01-26T06:11:21.725Z,33.60
2023-01-26T06:14:08.502Z,34.10
2023-01-26T06:16:36.653Z,34.90
2023-01-26T06:19:07.021Z,35.55
2023-01-26T06:21:35.057Z,35.70
2023-01-26T06:24:03.916Z,34.47
2023-01-26T06:26:31.916Z,34.80
2023-01-26T06:29:00.483Z,34.97
2023-01-26T06:31:32.625Z,37.00
2023-01-26T06:34:02.419Z,32.63
2023-01-26T06:36:30.403Z,35.92
2023-01-26T06:39:00.962Z,40.03
2023-01-26T06:41:29.439Z,35.17
2023-01-26T06:43:57.782Z,35.58
2023-01-26T06:46:25.760Z,36.28
2023-01-26T06:48:56.156Z,35.53
2023-01-26T06:51:39.377Z,36.17
2023-01-26T06:54:10.699Z,33.60
2023-01-26T06:56:58.613Z,34.47
2023-01-26T06:59:39.572Z,35.38
2023-01-26T07:02:40.536Z,31.77
2023-01-26T07:05:11.070Z,31.95
2023-01-26T07:07:39.071Z,32.78
2023-01-26T07:10:07.668Z,32.95
2023-01-26T07:12:44.071Z,29.40
2023-01-26T07:15:13.638Z,31.15
2023-01-26T07:17:41.462Z,30.63
2023-01-26T07:20:10.672Z,30.10
2023-01-26T07:22:38.705Z,29.35
2023-01-26T07:25:07.411Z,30.63
2023-01-26T07:27:35.571Z,31.95
2023-01-26T07:30:16.432Z,32.42
2023-01-26T07:32:44.152Z,32.03
2023-01-26T07:35:12.737Z,34.30
2023-01-26T07:37:40.449Z,33.42
2023-01-26T07:40:09.898Z,34.22
2023-01-26T07:42:38.008Z,35.05
2023-01-26T07:45:29.757Z,36.50
2023-01-26T07:47:57.956Z,34.55
2023-01-26T07:50:27.275Z,33.47
2023-01-26T07:52:55.026Z,33.67
2023-01-26T07:55:26.444Z,33.17
2023-01-26T07:57:54.222Z,31.90
2023-01-26T08:00:23.045Z,32.67
2023-01-26T08:02:52.116Z,31.27
2023-01-26T08:05:20.631Z,31.30
2023-01-26T08:07:48.524Z,30.48
2023-01-26T08:10:17.120Z,32.20
2023-01-26T08:12:44.786Z,30.42
2023-01-26T08:15:13.184Z,33.08
2023-01-26T08:17:41.066Z,30.90
2023-01-26T08:20:10.666Z,30.25
2023-01-26T08:22:39.381Z,30.30
2023-01-26T08:25:07.880Z,29.15
2023-01-26T08:27:35.825Z,29.73
2023-01-26T08:30:05.021Z,30.67
2023-01-26T08:32:33.578Z,27.80
2023-01-26T08:35:02.241Z,28.05
2023-01-26T08:37:30.101Z,28.15
2023-01-26T08:39:58.490Z,28.70
2023-01-26T08:42:26.161Z,28.88
2023-01-26T08:44:54.742Z,27.52
2023-01-26T08:47:22.480Z,28.45
2023-01-26T08:49:50.769Z,30.05
2023-01-26T08:52:18.388Z,29.35
2023-01-26T08:54:46.670Z,28.75
2023-01-26T08:57:14.253Z,28.45
2023-01-26T08:59:42.866Z,27.02
2023-01-26T09:02:11.581Z,29.02
2023-01-26T09:04:40.013Z,27.08
2023-01-26T09:07:07.772Z,25.67
2023-01-26T09:09:36.293Z,25.48
2023-01-26T09:12:04.992Z,23.95
2023-01-26T09:14:33.560Z,26.02
2023-01-26T09:17:01.267Z,25.98
2023-01-26T09:19:31.115Z,23.55
2023-01-26T09:21:59.451Z,24.25
2023-01-26T09:24:28.289Z,24.80
2023-01-26T09:26:55.938Z,24.35
2023-01-26T09:29:24.386Z,23.40
2023-01-26T09:31:52.248Z,22.23
2023-01-26T09:34:20.319Z,22.85
2023-01-26T09:36:48.468Z,21.92
2023-01-26T09:39:17.302Z,21.92
2023-01-26T09:42:07.407Z,21.42
2023-01-26T09:44:44.962Z,21.52
2023-01-26T09:47:35.193Z,20.17
2023-01-26T09:50:11.357Z,19.55
2023-01-26T09:52:55.573Z,20.80
2023-01-26T09:55:25.046Z,19.65
2023-01-26T09:57:57.493Z,18.48
2023-01-26T10:00:31.838Z,17.33
2023-01-26T10:03:18.504Z,18.50
2023-01-26T10:05:49.356Z,17.05
2023-01-26T10:08:37.263Z,16.90
2023-01-26T10:11:13.663Z,17.65
2023-01-26T10:13:51.367Z,18.48
2023-01-26T10:16:22.569Z,17.95
2023-01-26T10:19:11.924Z,18.15
2023-01-26T10:21:44.780Z,16.70
2023-01-26T10:24:14.538Z,17.75
2023-01-26T10:26:43.702Z,16.92
2023-01-26T10:29:16.405Z,18.05
2023-01-26T10:31:46.015Z,17.52
2023-01-26T10:34:32.619Z,18.05
2023-01-26T10:37:22.866Z,17.77
2023-01-26T10:40:02.051Z,16.92
2023-01-26T10:42:32.871Z,16.42
2023-01-26T10:45:03.165Z,19.15
2023-01-26T10:47:31.754Z,17.65
2023-01-26T10:50:21.453Z,18.20
2023-01-26T10:53:04.819Z,17.50
2023-01-26T10:55:34.180Z,17.45
2023-01-26T10:58:02.615Z,17.35
2023-01-26T11:00:34.672Z,17.02
2023-01-26T11:03:15.791Z,17.77
2023-01-26T11:05:45.170Z,18.08
2023-01-26T11:08:37.090Z,16.70
2023-01-26T11:11:08.486Z,18.40
2023-01-26T11:13:37.126Z,16.48
2023-01-26T11:16:22.394Z,17.23
2023-01-26T11:19:07.982Z,16.63
2023-01-26T11:21:49.187Z,16.83
2023-01-26T11:24:34.971Z,16.52
2023-01-26T11:27:23.192Z,16.83
2023-01-26T11:29:54.029Z,17.75
2023-01-26T11:32:35.052Z,17.58
2023-01-26T11:35:32.211Z,16.70
2023-01-26T11:38:24.720Z,16.20
2023-01-26T11:40:55.933Z,15.93
2023-01-26T11:43:48.359Z,16.52
2023-01-26T11:46:28.742Z,13.52
2023-01-26T11:49:28.511Z,16.83
2023-01-26T11:52:18.519Z,16.35
2023-01-26T11:55:11.302Z,15.90
2023-01-26T11:58:16.237Z,17.08
2023-01-26T12:00:57.061Z,16.58
2023-01-26T12:03:36.555Z,16.17
2023-01-26T12:06:11.690Z,15.43
2023-01-26T12:08:42.894Z,16.67
2023-01-26T12:11:26.136Z,16.20
2023-01-26T12:14:14.090Z,16.73
2023-01-26T12:17:18.393Z,17.50
2023-01-26T12:20:24.887Z,16.58
2023-01-26T12:23:25.462Z,17.33
2023-01-26T12:25:58.514Z,17.02
2023-01-26T12:28:46.228Z,16.25
2023-01-26T12:31:39.907Z,16.80
2023-01-26T12:34:12.668Z,15.98
2023-01-26T12:36:44.037Z,16.88
2023-01-26T12:39:28.374Z,16.67
2023-01-26T12:42:07.647Z,17.77
2023-01-26T12:44:39.544Z,17.58
2023-01-26T12:47:17.454Z,16.83
2023-01-26T12:49:51.113Z,16.92
2023-01-26T12:52:57.315Z,18.20
2023-01-26T12:55:41.410Z,17.02
2023-01-26T12:58:17.782Z,15.60
2023-01-26T13:01:11.565Z,16.60
2023-01-26T13:03:56.629Z,16.77
2023-01-26T13:06:27.173Z,16.27
2023-01-26T13:08:58.703Z,17.45
2023-01-26T13:12:00.761Z,17.40
2023-01-26T13:14:39.541Z,18.00
2023-01-26T13:17:16.687Z,17.63
2023-01-26T13:19:45.013Z,18.00
2023-01-26T13:22:40.772Z,16.75
2023-01-26T13:25:32.017Z,17.80
2023-01-26T13:28:04.927Z,16.75
2023-01-26T13:30:40.389Z,15.32
2023-01-26T13:33:22.234Z,16.20
2023-01-26T13:35:51.945Z,18.47
2023-01-26T13:38:29.058Z,18.35
2023-01-26T13:40:59.500Z,16.98
2023-01-26T13:43:36.987Z,18.00
2023-01-26T13:46:05.714Z,16.60
2023-01-26T13:48:42.357Z,18.05
2023-01-26T13:51:19.617Z,17.13
2023-01-26T13:54:12.982Z,17.83
2023-01-26T13:56:43.348Z,18.48
2023-01-26T13:59:13.000Z,17.50
2023-01-26T14:01:50.098Z,18.42
2023-01-26T14:04:21.507Z,18.23
2023-01-26T14:07:04.463Z,18.70
2023-01-26T14:09:34.589Z,18.50
2023-01-26T14:12:05.017Z,17.63
2023-01-26T14:14:37.567Z,18.27
2023-01-26T14:19:40.769Z,18.10
2023-01-26T14:22:13.359Z,19.03
2023-01-26T14:24:44.796Z,19.15
2023-01-26T14:27:28.098Z,19.17
2023-01-26T14:29:55.973Z,19.77
2023-01-26T14:32:25.867Z,20.42
2023-01-26T14:34:55.222Z,19.15
2023-01-26T14:37:25.053Z,20.13
2023-01-26T14:40:24.873Z,19.58
2023-01-26T14:42:54.023Z,20.42
2023-01-26T14:45:30.908Z,21.30
2023-01-26T14:48:04.246Z,21.35
2023-01-26T14:50:33.028Z,19.23
2023-01-26T14:53:02.237Z,21.08
2023-01-26T14:55:32.294Z,21.17
2023-01-26T14:58:02.553Z,20.83
2023-01-26T15:00:37.732Z,20.45
2023-01-26T15:03:12.748Z,21.88
2023-01-26T15:05:44.440Z,21.55
2023-01-26T15:08:25.866Z,23.27
2023-01-26T15:11:24.721Z,21.10
2023-01-26T15:13:55.568Z,20.23
2023-01-26T15:16:25.321Z,20.90
2023-01-26T15:19:08.109Z,22.15
2023-01-26T15:21:44.176Z,21.45
2023-01-26T15:24:14.784Z,21.10
2023-01-26T15:26:43.461Z,23.50
2023-01-26T15:29:33.475Z,22.70
2023-01-26T15:32:01.890Z,23.17
2023-01-26T15:34:37.902Z,24.00
2023-01-26T15:37:29.347Z,23.27
2023-01-26T15:39:58.046Z,23.92
2023-01-26T15:42:29.333Z,24.05
2023-01-26T15:44:57.983Z,24.15
2023-01-26T15:47:25.786Z,23.67
2023-01-26T15:49:54.448Z,25.45
2023-01-26T15:52:25.932Z,24.15
2023-01-26T15:54:54.484Z,24.92
2023-01-26T15:57:22.470Z,25.45
2023-01-26T15:59:50.872Z,24.58
2023-01-26T16:02:21.354Z,24.77
2023-01-26T16:04:52.361Z,23.48
2023-01-26T16:07:21.105Z,22.45
2023-01-26T16:09:51.279Z,22.70
2023-01-26T16:12:31.142Z,25.02
2023-01-26T16:15:00.773Z,26.15
2023-01-26T16:17:28.782Z,26.88
2023-01-26T16:19:57.201Z,27.77
2023-01-26T16:22:25.673Z,28.00
2023-01-26T16:24:54.149Z,24.50
2023-01-26T16:27:22.679Z,28.20
2023-01-26T16:29:50.743Z,25.55
2023-01-26T16:32:29.128Z,27.52
2023-01-26T16:34:57.451Z,29.27
2023-01-26T16:37:25.367Z,35.90
2023-01-26T16:39:53.918Z,26.70
2023-01-26T16:42:21.791Z,32.83
2023-01-26T16:44:50.222Z,32.88
2023-01-26T16:47:18.209Z,31.75
2023-01-26T16:49:46.563Z,29.42
2023-01-26T16:52:14.624Z,26.35
2023-01-26T16:54:42.966Z,25.83
2023-01-26T16:57:10.596Z,25.38
2023-01-26T16:59:38.686Z,27.05
2023-01-26T17:02:18.044Z,26.70
2023-01-26T17:04:46.844Z,26.98
2023-01-26T17:07:14.556Z,28.08
2023-01-26T17:09:43.259Z,24.85
2023-01-26T17:12:11.776Z,29.02
2023-01-26T17:14:40.207Z,25.58
2023-01-26T17:17:09.825Z,25.52
2023-01-26T17:19:38.206Z,25.75
2023-01-26T17:22:06.837Z,28.75
2023-01-26T17:24:35.128Z,28.25
2023-01-26T17:27:02.823Z,28.77
2023-01-26T17:29:31.278Z,26.48
2023-01-26T17:31:59.825Z,26.90
2023-01-26T17:34:28.756Z,27.52
2023-01-26T17:36:57.769Z,28.45
2023-01-26T17:39:26.171Z,28.42
2023-01-26T17:41:57.087Z,26.10
2023-01-26T17:44:25.507Z,27.00
2023-01-26T17:46:53.112Z,27.88
2023-01-26T17:49:22.023Z,27.15
2023-01-26T17:51:49.715Z,25.35
2023-01-26T17:54:18.585Z,25.58
2023-01-26T17:56:46.292Z,25.25
2023-01-26T17:59:14.707Z,25.70
2023-01-26T18:01:42.473Z,40.50
2023-01-26T18:04:10.387Z,28.05
2023-01-26T18:06:38.983Z,24.92
2023-01-26T18:09:07.447Z,24.20
2023-01-26T18:11:35.414Z,24.80
2023-01-26T18:14:03.840Z,25.08
2023-01-26T18:16:31.887Z,25.33
2023-01-26T18:19:01.528Z,23.70
2023-01-26T18:21:29.883Z,24.50
2023-01-26T18:24:02.532Z,23.77
2023-01-26T18:26:33.155Z,24.98
2023-01-26T18:29:01.718Z,23.30
2023-01-26T18:31:33.390Z,25.00
2023-01-26T18:34:02.877Z,18.67
2023-01-26T18:36:31.086Z,25.75
2023-01-26T18:39:02.040Z,28.10
2023-01-26T18:41:33.413Z,25.65
2023-01-26T18:44:04.033Z,26.08
2023-01-26T18:46:32.197Z,24.10
2023-01-26T18:49:04.168Z,28.67
2023-01-26T18:51:34.901Z,26.15
2023-01-26T18:54:04.502Z,26.42
2023-01-26T18:56:33.062Z,28.00
2023-01-26T18:59:01.665Z,26.42
2023-01-26T19:01:30.340Z,26.05
2023-01-26T19:03:59.184Z,24.13
2023-01-26T19:06:28.806Z,24.75
2023-01-26T19:09:01.098Z,24.48
2023-01-26T19:11:34.025Z,23.00
2023-01-26T19:14:03.361Z,24.80
2023-01-26T19:16:32.128Z,24.40
2023-01-26T19:19:00.774Z,24.73
2023-01-26T19:21:29.477Z,23.50
2023-01-26T19:24:06.160Z,24.63
2023-01-26T19:26:34.613Z,24.73
2023-01-26T19:29:03.255Z,24.55
2023-01-26T19:31:32.342Z,25.10
2023-01-26T19:34:02.555Z,25.33
2023-01-26T19:36:33.071Z,24.25
2023-01-26T19:39:03.506Z,24.80
2023-01-26T19:41:32.316Z,24.50
2023-01-26T19:44:01.416Z,24.80
2023-01-26T19:46:29.529Z,22.73
2023-01-26T19:48:58.074Z,24.73
2023-01-26T19:51:27.112Z,24.55
2023-01-26T19:53:58.636Z,26.50
2023-01-26T19:56:32.078Z,26.45
2023-01-26T19:59:03.627Z,23.98
2023-01-26T20:01:33.243Z,24.13
2023-01-26T20:04:04.075Z,22.98
2023-01-26T20:06:34.633Z,22.77
2023-01-26T20:09:04.287Z,23.80
2023-01-26T20:11:32.787Z,23.48
2023-01-26T20:14:06.588Z,23.25
2023-01-26T20:16:35.748Z,23.38
2023-01-26T20:19:04.242Z,23.15
2023-01-26T20:21:32.701Z,22.20
2023-01-26T20:24:06.097Z,24.17
2023-01-26T20:26:35.565Z,23.35
2023-01-26T20:29:04.711Z,23.20
2023-01-26T20:31:33.203Z,23.50
2023-01-26T20:34:02.576Z,24.10
2023-01-26T20:36:31.234Z,24.35
2023-01-26T20:39:00.556Z,22.60
2023-01-26T20:41:30.254Z,22.50
2023-01-26T20:44:01.989Z,22.88
2023-01-26T20:46:39.093Z,22.45
2023-01-26T20:49:10.514Z,23.55
2023-01-26T20:51:40.839Z,24.30
2023-01-26T20:54:12.413Z,25.08
2023-01-26T20:56:41.151Z,23.85
2023-01-26T20:59:11.009Z,25.02
2023-01-26T21:01:39.333Z,23.65
2023-01-26T21:04:08.001Z,22.30
2023-01-26T21:06:36.818Z,23.13
2023-01-26T21:09:06.405Z,22.85
2023-01-26T21:11:37.120Z,22.67
2023-01-26T21:14:05.931Z,22.77
2023-01-26T21:16:36.158Z,21.95
2023-01-26T21:19:05.094Z,22.27
2023-01-26T21:21:32.911Z,23.67
2023-01-26T21:24:01.672Z,21.80
2023-01-26T21:26:30.120Z,21.10
2023-01-26T21:29:00.787Z,21.42
2023-01-26T21:31:31.022Z,21.15
2023-01-26T21:34:00.279Z,21.63
2023-01-26T21:36:31.294Z,21.58
2023-01-26T21:39:00.472Z,22.50
2023-01-26T21:41:49.762Z,21.27
2023-01-26T21:44:24.317Z,21.17
2023-01-26T21:46:55.428Z,20.50
2023-01-26T21:49:24.739Z,21.58
2023-01-26T21:52:11.847Z,22.25
2023-01-26T21:54:40.819Z,19.30
2023-01-26T21:57:29.928Z,21.38
2023-01-26T21:59:58.459Z,19.83
2023-01-26T22:02:26.510Z,21.00
2023-01-26T22:04:55.458Z,19.88
2023-01-26T22:07:23.610Z,19.17
2023-01-26T22:09:51.681Z,17.65
2023-01-26T22:12:19.803Z,17.55
2023-01-26T22:14:48.042Z,19.40
2023-01-26T22:17:16.263Z,18.98
2023-01-26T22:19:44.645Z,20.85
2023-01-26T22:22:12.776Z,19.00
2023-01-26T22:24:41.618Z,19.05
2023-01-26T22:27:09.370Z,19.08
2023-01-26T22:29:37.758Z,18.05
2023-01-26T22:32:06.277Z,19.10
2023-01-26T22:34:34.366Z,19.33
2023-01-26T22:37:02.294Z,20.05
2023-01-26T22:39:30.602Z,20.25
2023-01-26T22:41:59.514Z,19.40
2023-01-26T22:44:27.937Z,20.30
2023-01-26T22:46:55.976Z,18.60
2023-01-26T22:49:24.508Z,20.33
2023-01-26T22:51:52.382Z,21.05
2023-01-26T22:54:20.800Z,20.40
2023-01-26T22:56:48.844Z,20.42
2023-01-26T22:59:17.206Z,21.35
2023-01-26T23:01:45.585Z,20.23
2023-01-26T23:04:14.103Z,19.83
2023-01-26T23:06:42.892Z,20.00
2023-01-26T23:09:11.446Z,19.45
2023-01-26T23:11:39.397Z,20.77
2023-01-26T23:14:07.696Z,22.55
2023-01-26T23:16:35.714Z,19.40
2023-01-26T23:19:04.737Z,21.63
2023-01-26T23:21:32.583Z,20.35
2023-01-26T23:24:01.090Z,21.13
2023-01-26T23:26:29.034Z,19.88
2023-01-26T23:28:57.421Z,20.42
2023-01-26T23:31:25.219Z,21.23
2023-01-26T23:33:53.741Z,20.52
2023-01-26T23:36:21.688Z,20.88
2023-01-26T23:38:49.996Z,20.92
2023-01-26T23:41:18.350Z,21.80
2023-01-26T23:43:47.071Z,21.67
2023-01-26T23:46:14.890Z,21.33
2023-01-26T23:48:43.288Z,21.35
2023-01-26T23:51:12.636Z,21.20
2023-01-26T23:53:41.205Z,20.60
2023-01-26T23:56:12.123Z,21.05
2023-01-26T23:58:40.212Z,22.08
